createdAt,value
2019-03-08T00:00:19.804Z,95419.94
2019-03-08T00:02:47.940Z,95420.59
2019-03-08T00:05:15.783Z,95423.72
2019-03-08T00:07:43.170Z,95407.45
2019-03-08T00:10:10.875Z,95419.09
2019-03-08T00:12:38.362Z,95406.41
2019-03-08T00:15:06.249Z,95415.78
2019-03-08T00:17:33.775Z,95421.38
2019-03-08T00:20:01.205Z,95412.28
2019-03-08T00:22:28.835Z,95410.78
2019-03-08T00:24:56.285Z,95400.73
2019-03-08T00:27:23.772Z,95407.13
2019-03-08T00:29:51.149Z,95407.13
2019-03-08T00:32:18.551Z,95406.68
2019-03-08T00:34:46.021Z,95409.95
2019-03-08T00:37:13.488Z,95425.10
2019-03-08T00:39:40.980Z,95414.88
2019-03-08T00:42:08.425Z,95432.69
2019-03-08T00:44:35.872Z,95408.77
2019-03-08T00:47:03.319Z,95422.31
2019-03-08T00:49:30.752Z,95429.55
2019-03-08T00:51:58.232Z,95430.75
2019-03-08T00:54:26.004Z,95425.87
2019-03-08T00:56:53.569Z,95432.27
2019-03-08T00:59:21.071Z,95423.17
2019-03-08T01:01:48.506Z,95412.13
2019-03-08T01:04:15.917Z,95404.52
2019-03-08T01:06:43.373Z,95422.14
2019-03-08T01:09:10.909Z,95418.90
2019-03-08T01:11:38.470Z,95417.42
2019-03-08T01:14:05.834Z,95408.50
2019-03-08T01:16:33.290Z,95419.38
2019-03-08T01:19:00.732Z,95411.73
2019-03-08T01:21:28.545Z,95414.83
2019-03-08T01:23:55.996Z,95419.91
2019-03-08T01:26:23.404Z,95404.98
2019-03-08T01:28:50.864Z,95411.20
2019-03-08T01:31:18.333Z,95415.41
2019-03-08T01:33:45.889Z,95411.68
2019-03-08T01:36:13.502Z,95400.62
2019-03-08T01:38:40.943Z,95403.17
2019-03-08T01:41:08.397Z,95401.45
2019-03-08T01:43:36.023Z,95399.17
2019-03-08T01:46:03.659Z,95401.21
2019-03-08T01:48:31.081Z,95404.22
2019-03-08T01:50:58.599Z,95399.75
2019-03-08T01:53:26.182Z,95402.09
2019-03-08T01:55:53.664Z,95401.95
2019-03-08T01:58:21.202Z,95412.74
2019-03-08T02:00:48.807Z,95409.66
2019-03-08T02:03:17.223Z,95406.30
2019-03-08T02:05:44.843Z,95411.39
2019-03-08T02:08:12.303Z,95409.99
2019-03-08T02:10:39.773Z,95409.69
2019-03-08T02:13:07.282Z,95414.28
2019-03-08T02:15:34.961Z,95415.97
2019-03-08T02:18:02.544Z,95421.33
2019-03-08T02:20:29.959Z,95410.77
2019-03-08T02:22:57.397Z,95419.92
2019-03-08T02:25:24.853Z,95415.59
2019-03-08T02:27:52.336Z,95412.20
2019-03-08T02:30:19.949Z,95420.48
2019-03-08T02:32:47.392Z,95417.95
2019-03-08T02:35:16.943Z,95421.52
2019-03-08T02:37:44.330Z,95417.12
2019-03-08T02:40:34.540Z,95421.81
2019-03-08T02:43:03.420Z,95419.55
2019-03-08T02:45:31.178Z,95421.33
2019-03-08T02:47:58.773Z,95429.59
2019-03-08T02:50:26.244Z,95430.09
2019-03-08T02:52:53.624Z,95429.28
2019-03-08T02:55:21.213Z,95425.02
2019-03-08T02:57:49.100Z,95428.22
2019-03-08T03:00:17.283Z,95434.80
2019-03-08T03:02:44.776Z,95436.66
2019-03-08T03:05:12.683Z,95429.22
2019-03-08T03:07:40.181Z,95432.61
2019-03-08T03:10:07.928Z,95441.84
2019-03-08T03:12:35.757Z,95443.70
2019-03-08T03:15:03.399Z,95442.11
2019-03-08T03:17:30.844Z,95442.53
2019-03-08T03:19:58.289Z,95439.66
2019-03-08T03:22:25.648Z,95437.48
2019-03-08T03:24:53.230Z,95445.27
2019-03-08T03:27:20.705Z,95437.16
2019-03-08T03:29:48.154Z,95440.52
2019-03-08T03:32:15.616Z,95445.90
2019-03-08T03:34:43.056Z,95446.92
2019-03-08T03:37:10.747Z,95445.10
2019-03-08T03:39:38.218Z,95447.87
2019-03-08T03:42:05.699Z,95456.16
2019-03-08T03:44:33.120Z,95439.22
2019-03-08T03:47:01.202Z,95451.19
2019-03-08T03:49:28.651Z,95455.13
2019-03-08T03:51:56.100Z,95457.25
2019-03-08T03:54:23.571Z,95455.41
2019-03-08T03:56:51.025Z,95455.93
2019-03-08T03:59:18.455Z,95466.14
2019-03-08T04:01:48.879Z,95461.40
2019-03-08T04:04:16.362Z,95468.81
2019-03-08T04:06:43.804Z,95470.16
2019-03-08T04:09:12.021Z,95470.17
2019-03-08T04:11:39.718Z,95473.77
2019-03-08T04:14:07.119Z,95472.78
2019-03-08T04:16:34.794Z,95463.81
2019-03-08T04:19:02.273Z,95463.31
2019-03-08T04:21:29.641Z,95459.64
2019-03-08T04:23:57.296Z,95471.20
2019-03-08T04:26:24.769Z,95466.42
2019-03-08T04:28:52.574Z,95467.19
2019-03-08T04:31:20.013Z,95454.14
2019-03-08T04:33:47.654Z,95463.25
2019-03-08T04:36:15.075Z,95459.55
2019-03-08T04:38:42.557Z,95457.09
2019-03-08T04:41:09.999Z,95448.59
2019-03-08T04:43:37.385Z,95454.84
2019-03-08T04:46:04.905Z,95456.18
2019-03-08T04:48:32.480Z,95449.94
2019-03-08T04:50:59.964Z,95444.23
2019-03-08T04:53:27.380Z,95445.16
2019-03-08T04:55:54.806Z,95447.44
2019-03-08T04:58:22.267Z,95450.46
2019-03-08T05:00:49.633Z,95442.19
2019-03-08T05:03:17.245Z,95442.19
2019-03-08T05:05:45.091Z,95441.73
2019-03-08T05:08:12.641Z,95444.02
2019-03-08T05:10:40.383Z,95443.53
2019-03-08T05:13:07.825Z,95435.11
2019-03-08T05:15:35.244Z,95448.20
2019-03-08T05:18:02.677Z,95444.30
2019-03-08T05:20:30.156Z,95441.45
2019-03-08T05:22:58.578Z,95437.22
2019-03-08T05:25:26.025Z,95436.75
2019-03-08T05:27:53.483Z,95438.19
2019-03-08T05:30:20.923Z,95438.72
2019-03-08T05:32:48.638Z,95443.87
2019-03-08T05:35:16.038Z,95450.70
2019-03-08T05:37:43.608Z,95459.17
2019-03-08T05:40:11.300Z,95450.05
2019-03-08T05:42:38.929Z,95460.23
2019-03-08T05:45:07.712Z,95475.02
2019-03-08T05:47:35.381Z,95469.95
2019-03-08T05:50:03.268Z,95465.80
2019-03-08T05:52:30.765Z,95465.97
2019-03-08T05:54:58.574Z,95486.69
2019-03-08T05:57:26.310Z,95461.78
2019-03-08T05:59:53.811Z,95470.25
2019-03-08T06:02:21.244Z,95468.09
2019-03-08T06:04:49.009Z,95468.44
2019-03-08T06:07:16.513Z,95463.89
2019-03-08T06:09:44.120Z,95468.03
2019-03-08T06:12:11.912Z,95474.41
2019-03-08T06:14:39.372Z,95489.63
2019-03-08T06:17:06.869Z,95476.16
2019-03-08T06:19:34.319Z,95478.70
2019-03-08T06:22:01.709Z,95484.97
2019-03-08T06:24:29.232Z,95482.23
2019-03-08T06:26:56.672Z,95473.90
2019-03-08T06:29:24.363Z,95473.32
2019-03-08T06:31:51.729Z,95480.59
2019-03-08T06:34:19.197Z,95470.14
2019-03-08T06:36:46.722Z,95479.24
2019-03-08T06:39:14.107Z,95471.41
2019-03-08T06:41:41.613Z,95474.67
2019-03-08T06:44:09.052Z,95473.16
2019-03-08T06:46:36.801Z,95472.47
2019-03-08T06:49:04.306Z,95478.85
2019-03-08T06:51:31.738Z,95474.16
2019-03-08T06:53:59.218Z,95478.43
2019-03-08T06:56:26.652Z,95472.45
2019-03-08T06:59:02.844Z,95469.84
2019-03-08T07:01:33.805Z,95475.98
2019-03-08T07:04:01.272Z,95484.23
2019-03-08T07:06:29.007Z,95492.44
2019-03-08T07:08:56.555Z,95485.73
2019-03-08T07:11:23.954Z,95489.63
2019-03-08T07:13:51.429Z,95476.66
2019-03-08T07:16:18.924Z,95481.09
2019-03-08T07:18:46.413Z,95487.38
2019-03-08T07:21:33.398Z,95480.78
2019-03-08T07:24:19.037Z,95482.91
2019-03-08T07:27:04.624Z,95482.30
2019-03-08T07:29:54.457Z,95483.27
2019-03-08T07:32:39.188Z,95479.91
2019-03-08T07:35:29.156Z,95484.48
2019-03-08T07:38:10.348Z,95482.09
2019-03-08T07:40:56.643Z,95477.94
2019-03-08T07:43:55.557Z,95465.09
2019-03-08T07:46:41.423Z,95471.20
2019-03-08T07:49:31.229Z,95474.87
2019-03-08T07:52:07.350Z,95472.53
2019-03-08T07:54:53.311Z,95472.98
2019-03-08T07:57:39.403Z,95463.45
2019-03-08T08:00:29.653Z,95470.06
2019-03-08T08:03:06.606Z,95462.50
2019-03-08T08:05:58.094Z,95460.50
2019-03-08T08:08:40.710Z,95453.06
2019-03-08T08:11:26.791Z,95455.98
2019-03-08T08:14:07.128Z,95453.04
2019-03-08T08:16:54.101Z,95451.81
2019-03-08T08:19:39.133Z,95444.81
2019-03-08T08:22:26.145Z,95447.81
2019-03-08T08:25:22.164Z,95447.95
2019-03-08T08:28:08.281Z,95446.52
2019-03-08T08:30:54.149Z,95448.30
2019-03-08T08:33:41.208Z,95448.88
2019-03-08T08:36:37.244Z,95453.42
2019-03-08T08:39:38.289Z,95445.28
2019-03-08T08:42:25.512Z,95445.34
2019-03-08T08:45:15.540Z,95451.11
2019-03-08T08:48:17.288Z,95445.91
2019-03-08T08:50:58.815Z,95451.33
2019-03-08T08:53:48.776Z,95445.86
2019-03-08T08:56:34.350Z,95438.69
2019-03-08T08:59:27.227Z,95435.45
2019-03-08T09:02:23.457Z,95431.52
2019-03-08T09:05:19.367Z,95433.18
2019-03-08T09:07:55.391Z,95443.02
2019-03-08T09:10:41.053Z,95431.22
2019-03-08T09:13:25.843Z,95425.67
2019-03-08T09:16:06.929Z,95429.08
2019-03-08T09:18:47.892Z,95431.20
2019-03-08T09:21:52.856Z,95431.86
2019-03-08T09:24:38.777Z,95428.91
2019-03-08T09:27:23.680Z,95428.74
2019-03-08T09:30:06.791Z,95425.44
2019-03-08T09:32:59.340Z,95422.03
2019-03-08T09:35:57.806Z,95428.28
2019-03-08T09:38:47.853Z,95431.03
2019-03-08T09:41:37.640Z,95422.05
2019-03-08T09:44:14.471Z,95424.86
2019-03-08T09:46:57.497Z,95421.84
2019-03-08T09:50:02.514Z,95426.23
2019-03-08T09:52:47.979Z,95413.65
2019-03-08T09:55:36.778Z,95417.48
2019-03-08T09:58:33.842Z,95417.33
2019-03-08T10:01:26.847Z,95411.55
2019-03-08T10:04:01.141Z,95414.19
2019-03-08T10:06:55.816Z,95401.98
2019-03-08T10:09:41.798Z,95405.31
2019-03-08T10:12:19.396Z,95403.27
2019-03-08T10:15:01.396Z,95393.22
2019-03-08T10:17:57.302Z,95400.12
2019-03-08T10:20:36.727Z,95388.15
2019-03-08T10:23:23.768Z,95389.09
2019-03-08T10:26:15.513Z,95384.67
2019-03-08T10:29:14.515Z,95388.13
2019-03-08T10:32:04.469Z,95382.87
2019-03-08T10:34:53.335Z,95386.61
2019-03-08T10:37:52.583Z,95383.88
2019-03-08T10:40:39.583Z,95380.41
2019-03-08T10:43:25.257Z,95378.53
2019-03-08T10:46:24.248Z,95374.05
2019-03-08T10:49:07.423Z,95373.05
2019-03-08T10:52:17.764Z,95367.80
2019-03-08T10:55:10.461Z,95372.75
2019-03-08T10:57:56.438Z,95358.86
2019-03-08T11:00:31.269Z,95353.21
2019-03-08T11:03:24.368Z,95354.59
2019-03-08T11:05:58.612Z,95336.52
2019-03-08T11:08:44.437Z,95343.36
2019-03-08T11:11:34.227Z,95341.45
2019-03-08T11:14:11.077Z,95327.89
2019-03-08T11:16:56.648Z,95325.03
2019-03-08T11:19:46.347Z,95324.79
2019-03-08T11:22:32.146Z,95313.99
2019-03-08T11:25:35.009Z,95320.58
2019-03-08T11:28:22.701Z,95307.91
2019-03-08T11:31:24.538Z,95301.35
2019-03-08T11:34:10.318Z,95295.81
2019-03-08T11:37:15.690Z,95290.30
2019-03-08T11:40:02.672Z,95281.75
2019-03-08T11:43:04.469Z,95288.32
2019-03-08T11:45:54.339Z,95292.52
2019-03-08T11:48:50.815Z,95282.06
2019-03-08T11:51:46.581Z,95274.34
2019-03-08T11:54:30.166Z,95270.91
2019-03-08T11:57:23.301Z,95267.98
2019-03-08T12:00:08.801Z,95269.07
2019-03-08T12:02:54.367Z,95265.86
2019-03-08T12:05:56.228Z,95258.87
2019-03-08T12:08:52.278Z,95254.49
2019-03-08T12:11:39.264Z,95247.25
2019-03-08T12:14:26.328Z,95253.56
2019-03-08T12:17:13.628Z,95248.91
2019-03-08T12:19:57.449Z,95273.59
2019-03-08T12:22:42.946Z,95248.73
2019-03-08T12:25:24.008Z,95238.20
2019-03-08T12:28:13.478Z,95236.20
2019-03-08T12:31:00.479Z,95224.82
2019-03-08T12:33:56.261Z,95231.30
2019-03-08T12:36:41.989Z,95234.11
2019-03-08T12:39:31.812Z,95219.88
2019-03-08T12:42:22.020Z,95228.38
2019-03-08T12:45:08.995Z,95223.78
2019-03-08T12:47:53.777Z,95211.12
2019-03-08T12:50:31.340Z,95209.45
2019-03-08T12:53:16.962Z,95211.80
2019-03-08T12:56:05.190Z,95209.78
2019-03-08T12:58:50.954Z,95205.81
2019-03-08T13:01:35.611Z,95197.84
2019-03-08T13:04:22.599Z,95198.33
2019-03-08T13:07:08.136Z,95200.69
2019-03-08T13:09:42.002Z,95198.41
2019-03-08T13:12:09.506Z,95195.05
2019-03-08T13:14:36.973Z,95189.98
2019-03-08T13:17:04.570Z,95188.35
2019-03-08T13:19:32.941Z,95185.05
2019-03-08T13:22:00.408Z,95188.45
2019-03-08T13:24:27.851Z,95188.14
2019-03-08T13:26:55.246Z,95189.71
2019-03-08T13:29:22.715Z,95176.44
2019-03-08T13:31:50.159Z,95185.47
2019-03-08T13:34:17.660Z,95184.77
2019-03-08T13:36:45.319Z,95192.63
2019-03-08T13:39:12.949Z,95184.51
2019-03-08T13:41:40.442Z,95179.64
2019-03-08T13:44:07.950Z,95176.70
2019-03-08T13:46:35.531Z,95167.07
2019-03-08T13:49:03.013Z,95170.66
2019-03-08T13:51:30.580Z,95169.62
2019-03-08T13:53:58.052Z,95164.65
2019-03-08T13:56:25.549Z,95166.14
2019-03-08T13:58:53.149Z,95161.87
2019-03-08T14:01:20.778Z,95151.05
2019-03-08T14:03:48.253Z,95140.58
2019-03-08T14:06:15.658Z,95154.80
2019-03-08T14:08:43.593Z,95155.62
2019-03-08T14:11:12.663Z,95154.65
2019-03-08T14:13:40.130Z,95155.42
2019-03-08T14:16:07.575Z,95161.38
2019-03-08T14:18:35.123Z,95155.02
2019-03-08T14:21:02.743Z,95148.34
2019-03-08T14:23:30.257Z,95157.38
2019-03-08T14:25:57.803Z,95150.23
2019-03-08T14:28:25.298Z,95167.65
2019-03-08T14:30:59.880Z,95152.23
2019-03-08T14:33:27.350Z,95147.41
2019-03-08T14:35:54.797Z,95148.52
2019-03-08T14:38:22.372Z,95146.65
2019-03-08T14:41:05.579Z,95139.78
2019-03-08T14:43:52.426Z,95144.34
2019-03-08T14:46:33.799Z,95143.27
2019-03-08T14:49:01.806Z,95144.99
2019-03-08T14:51:29.752Z,95153.30
2019-03-08T14:53:57.212Z,95147.17
2019-03-08T14:56:24.684Z,95153.64
2019-03-08T14:58:52.341Z,95151.01
2019-03-08T15:01:19.834Z,95152.44
2019-03-08T15:03:47.382Z,95164.38
2019-03-08T15:06:14.885Z,95155.76
2019-03-08T15:08:42.437Z,95158.86
2019-03-08T15:11:09.924Z,95160.87
2019-03-08T15:13:37.592Z,95166.84
2019-03-08T15:16:05.011Z,95174.88
2019-03-08T15:18:32.533Z,95176.25
2019-03-08T15:21:00.112Z,95166.48
2019-03-08T15:23:27.738Z,95166.69
2019-03-08T15:25:55.327Z,95165.11
2019-03-08T15:28:23.029Z,95163.70
2019-03-08T15:30:50.733Z,95169.52
2019-03-08T15:33:18.186Z,95174.52
2019-03-08T15:35:46.209Z,95164.70
2019-03-08T15:38:14.090Z,95187.67
2019-03-08T15:40:41.542Z,95175.66
2019-03-08T15:43:09.697Z,95185.42
2019-03-08T15:45:40.130Z,95183.28
2019-03-08T15:48:11.006Z,95188.89
2019-03-08T15:50:37.757Z,95197.25
2019-03-08T15:53:05.320Z,95197.84
2019-03-08T15:55:32.832Z,95200.77
2019-03-08T15:58:00.483Z,95200.27
2019-03-08T16:00:28.007Z,95204.53
2019-03-08T16:02:55.404Z,95208.67
2019-03-08T16:05:26.548Z,95217.62
2019-03-08T16:07:52.640Z,95210.28
2019-03-08T16:10:21.209Z,95213.64
2019-03-08T16:12:48.832Z,95222.18
2019-03-08T16:15:16.503Z,95222.10
2019-03-08T16:17:44.023Z,95211.77
2019-03-08T16:20:12.967Z,95220.99
2019-03-08T16:22:40.617Z,95224.47
2019-03-08T16:25:10.155Z,95225.36
2019-03-08T16:27:37.883Z,95222.41
2019-03-08T16:30:10.748Z,95225.67
2019-03-08T16:32:47.600Z,95235.63
2019-03-08T16:35:15.085Z,95227.20
2019-03-08T16:38:00.899Z,95221.75
2019-03-08T16:40:48.046Z,95226.48
2019-03-08T16:43:42.168Z,95239.73
2019-03-08T16:46:36.165Z,95241.27
2019-03-08T16:49:14.677Z,95247.27
2019-03-08T16:51:57.407Z,95246.09
2019-03-08T16:54:43.039Z,95245.66
2019-03-08T16:57:48.254Z,95250.92
2019-03-08T17:00:32.676Z,95251.45
2019-03-08T17:03:25.473Z,95259.45
2019-03-08T17:06:15.477Z,95252.00
2019-03-08T17:08:56.317Z,95246.03
2019-03-08T17:11:41.619Z,95263.88
2019-03-08T17:14:37.832Z,95261.88
2019-03-08T17:17:19.275Z,95257.14
2019-03-08T17:19:55.318Z,95256.39
2019-03-08T17:22:35.612Z,95251.28
2019-03-08T17:25:26.509Z,95257.88
2019-03-08T17:28:04.472Z,95266.00
2019-03-08T17:30:50.044Z,95268.98
2019-03-08T17:33:35.658Z,95270.72
2019-03-08T17:36:30.066Z,95280.97
2019-03-08T17:39:04.170Z,95281.20
2019-03-08T17:41:41.572Z,95282.34
2019-03-08T17:44:27.216Z,95281.35
2019-03-08T17:47:09.058Z,95283.83
2019-03-08T17:50:01.954Z,95296.78
2019-03-08T17:52:48.972Z,95294.19
2019-03-08T17:55:54.400Z,95294.42
2019-03-08T17:58:32.885Z,95301.66
2019-03-08T18:01:18.732Z,95303.75
2019-03-08T18:04:08.456Z,95294.92
2019-03-08T18:06:43.360Z,95298.92
2019-03-08T18:09:33.579Z,95309.40
2019-03-08T18:12:19.394Z,95319.19
2019-03-08T18:14:57.985Z,95321.39
2019-03-08T18:17:57.270Z,95330.59
2019-03-08T18:20:46.284Z,95328.52
2019-03-08T18:23:36.253Z,95332.23
2019-03-08T18:26:24.273Z,95320.36
2019-03-08T18:29:29.748Z,95324.11
2019-03-08T18:32:05.093Z,95337.86
2019-03-08T18:35:10.429Z,95334.76
2019-03-08T18:38:16.164Z,95337.05
2019-03-08T18:41:15.305Z,95345.13
2019-03-08T18:44:05.441Z,95342.03
2019-03-08T18:46:55.648Z,95343.98
2019-03-08T18:49:45.836Z,95346.61
2019-03-08T18:52:32.574Z,95358.26
2019-03-08T18:55:09.882Z,95353.63
2019-03-08T18:58:15.052Z,95363.98
2019-03-08T19:01:02.012Z,95359.52
2019-03-08T19:03:57.943Z,95374.25
2019-03-08T19:06:44.462Z,95363.31
2019-03-08T19:09:49.896Z,95372.05
2019-03-08T19:12:35.496Z,95378.16
2019-03-08T19:15:31.437Z,95375.05
2019-03-08T19:18:21.172Z,95371.24
2019-03-08T19:21:06.374Z,95378.81
2019-03-08T19:23:42.347Z,95387.09
2019-03-08T19:26:25.423Z,95397.33
2019-03-08T19:29:06.405Z,95400.77
2019-03-08T19:32:03.198Z,95390.37
2019-03-08T19:34:59.603Z,95397.83
2019-03-08T19:38:01.967Z,95389.16
2019-03-08T19:40:50.520Z,95395.77
2019-03-08T19:43:36.305Z,95393.29
2019-03-08T19:46:29.952Z,95410.19
2019-03-08T19:49:17.112Z,95406.83
2019-03-08T19:52:08.638Z,95412.70
2019-03-08T19:54:58.648Z,95414.11
2019-03-08T19:57:39.544Z,95409.51
2019-03-08T20:00:26.606Z,95410.13
2019-03-08T20:03:17.397Z,95408.08
2019-03-08T20:06:01.411Z,95412.97
2019-03-08T20:08:39.840Z,95410.78
2019-03-08T20:11:42.019Z,95410.58
2019-03-08T20:14:31.788Z,95411.65
2019-03-08T20:17:22.191Z,95411.88
2019-03-08T20:20:08.104Z,95412.86
2019-03-08T20:22:44.963Z,95413.72
2019-03-08T20:25:38.066Z,95411.29
2019-03-08T20:28:14.158Z,95422.41
2019-03-08T20:31:13.434Z,95421.78
2019-03-08T20:34:06.450Z,95423.55
2019-03-08T20:36:53.531Z,95431.25
2019-03-08T20:39:30.759Z,95432.92
2019-03-08T20:42:20.675Z,95430.23
2019-03-08T20:45:02.885Z,95435.98
2019-03-08T20:47:31.762Z,95419.11
2019-03-08T20:49:59.507Z,95431.02
2019-03-08T20:52:27.252Z,95434.05
2019-03-08T20:54:54.799Z,95438.56
2019-03-08T20:57:22.247Z,95441.44
2019-03-08T20:59:49.778Z,95437.94
2019-03-08T21:02:17.340Z,95423.91
2019-03-08T21:04:45.022Z,95429.61
2019-03-08T21:07:12.467Z,95432.51
2019-03-08T21:09:40.017Z,95420.87
2019-03-08T21:12:07.660Z,95422.09
2019-03-08T21:14:35.986Z,95428.73
2019-03-08T21:17:03.684Z,95428.41
2019-03-08T21:19:31.539Z,95432.16
2019-03-08T21:21:59.194Z,95429.33
2019-03-08T21:24:26.675Z,95430.67
2019-03-08T21:26:54.067Z,95427.64
2019-03-08T21:29:21.663Z,95439.56
2019-03-08T21:31:49.246Z,95427.48
2019-03-08T21:34:16.956Z,95430.83
2019-03-08T21:36:44.475Z,95428.09
2019-03-08T21:39:12.170Z,95435.76
2019-03-08T21:41:39.660Z,95438.95
2019-03-08T21:44:07.151Z,95431.69
2019-03-08T21:46:34.583Z,95434.27
2019-03-08T21:49:02.598Z,95443.24
2019-03-08T21:51:30.072Z,95441.34
2019-03-08T21:53:58.147Z,95440.61
2019-03-08T21:56:25.644Z,95438.03
2019-03-08T21:58:53.249Z,95440.44
2019-03-08T22:01:20.799Z,95442.53
2019-03-08T22:03:55.078Z,95435.45
2019-03-08T22:06:23.113Z,95440.59
2019-03-08T22:08:59.661Z,95442.81
2019-03-08T22:11:38.442Z,95446.17
2019-03-08T22:14:05.868Z,95449.72
2019-03-08T22:16:33.281Z,95440.96
2019-03-08T22:19:00.779Z,95440.86
2019-03-08T22:21:28.292Z,95440.17
2019-03-08T22:23:55.721Z,95442.22
2019-03-08T22:26:23.228Z,95446.59
2019-03-08T22:28:50.741Z,95443.02
2019-03-08T22:31:18.212Z,95456.31
2019-03-08T22:33:45.676Z,95454.50
2019-03-08T22:36:13.464Z,95446.82
2019-03-08T22:38:40.944Z,95452.84
2019-03-08T22:41:08.779Z,95462.80
2019-03-08T22:43:36.259Z,95459.50
2019-03-08T22:46:03.875Z,95475.64
2019-03-08T22:48:31.323Z,95465.67
2019-03-08T22:50:58.809Z,95467.41
2019-03-08T22:53:26.295Z,95472.59
2019-03-08T22:55:54.740Z,95469.84
2019-03-08T22:58:22.301Z,95470.69
2019-03-08T23:01:09.433Z,95485.02
2019-03-08T23:03:37.004Z,95488.13
2019-03-08T23:06:04.838Z,95486.31
2019-03-08T23:08:32.270Z,95487.73
2019-03-08T23:10:59.884Z,95489.81
2019-03-08T23:13:27.395Z,95491.52
2019-03-08T23:15:54.974Z,95495.96
2019-03-08T23:18:22.480Z,95492.62
2019-03-08T23:20:49.923Z,95494.17
2019-03-08T23:23:17.382Z,95495.03
2019-03-08T23:25:44.847Z,95501.30
2019-03-08T23:28:49.937Z,95503.39
2019-03-08T23:31:22.885Z,95501.22
2019-03-08T23:33:50.373Z,95510.06
2019-03-08T23:36:17.867Z,95510.92
2019-03-08T23:38:45.261Z,95503.20
2019-03-08T23:41:12.765Z,95509.38
2019-03-08T23:43:40.264Z,95506.13
2019-03-08T23:46:07.692Z,95496.84
2019-03-08T23:48:35.189Z,95496.20
2019-03-08T23:51:02.726Z,95510.13
2019-03-08T23:53:30.822Z,95507.86
2019-03-08T23:55:58.318Z,95503.02
2019-03-08T23:58:25.878Z,95504.06
